createdAt,value
2017-10-21T00:00:03.559Z,0
2017-10-21T00:01:03.547Z,0
2017-10-21T00:02:03.215Z,0
2017-10-21T00:03:03.534Z,0
2017-10-21T00:04:03.203Z,0
2017-10-21T00:05:03.521Z,0
2017-10-21T00:06:03.509Z,0
2017-10-21T00:07:03.500Z,0
2017-10-21T00:08:03.162Z,0
2017-10-21T00:09:03.492Z,0
2017-10-21T00:10:03.489Z,0
2017-10-21T00:11:03.481Z,0
2017-10-21T00:12:03.455Z,0
2017-10-21T00:13:03.457Z,0
2017-10-21T00:14:03.116Z,0
2017-10-21T00:15:03.112Z,0
2017-10-21T00:16:03.432Z,0
2017-10-21T00:17:03.426Z,0
2017-10-21T00:18:03.407Z,0
2017-10-21T00:19:03.406Z,0
2017-10-21T00:20:03.403Z,0
2017-10-21T00:21:03.061Z,0
2017-10-21T00:22:03.055Z,0
2017-10-21T00:23:03.373Z,0
2017-10-21T00:24:03.040Z,0
2017-10-21T00:25:03.358Z,0
2017-10-21T00:26:03.026Z,0
2017-10-21T00:27:03.013Z,0
2017-10-21T00:28:03.323Z,0
2017-10-21T00:29:03.325Z,0
2017-10-21T00:30:03.321Z,0
2017-10-21T00:31:03.309Z,0
2017-10-21T00:32:03.300Z,0
2017-10-21T00:33:02.985Z,0
2017-10-21T00:34:03.279Z,0
2017-10-21T00:35:02.949Z,0
2017-10-21T00:36:03.285Z,0
2017-10-21T00:37:03.268Z,0
2017-10-21T00:38:03.245Z,0
2017-10-21T00:39:03.241Z,0
2017-10-21T00:40:02.913Z,0
2017-10-21T00:41:03.221Z,0
2017-10-21T00:42:03.222Z,0
2017-10-21T00:43:03.208Z,0
2017-10-21T00:44:03.206Z,0
2017-10-21T00:45:02.869Z,0
2017-10-21T00:46:03.184Z,0
2017-10-21T00:47:02.856Z,0
2017-10-21T00:48:03.163Z,0
2017-10-21T00:49:03.156Z,0
2017-10-21T00:50:03.143Z,0
2017-10-21T00:51:02.814Z,0
2017-10-21T00:52:02.808Z,0
2017-10-21T00:53:02.803Z,0
2017-10-21T00:54:03.113Z,0
2017-10-21T00:55:02.776Z,0
2017-10-21T00:56:02.772Z,0
2017-10-21T00:57:03.087Z,0
2017-10-21T00:58:02.110Z,0
2017-10-21T00:59:03.073Z,0
2017-10-21T01:00:03.076Z,0
2017-10-21T01:01:03.054Z,0
2017-10-21T01:02:03.051Z,0
2017-10-21T01:03:02.717Z,0
2017-10-21T01:04:03.059Z,0
2017-10-21T01:05:02.711Z,0
2017-10-21T01:06:03.013Z,0
2017-10-21T01:07:03.010Z,0
2017-10-21T01:08:02.671Z,0
2017-10-21T01:09:02.657Z,0
2017-10-21T01:10:02.981Z,0
2017-10-21T01:11:02.650Z,0
2017-10-21T01:12:02.648Z,0
2017-10-21T01:13:02.956Z,0
2017-10-21T01:14:02.947Z,0
2017-10-21T01:15:02.294Z,0
2017-10-21T01:16:02.652Z,0
2017-10-21T01:17:02.601Z,0
2017-10-21T01:18:02.920Z,0
2017-10-21T01:19:02.935Z,0
2017-10-21T01:20:02.573Z,0
2017-10-21T01:21:02.242Z,0
2017-10-21T01:22:02.889Z,0
2017-10-21T01:23:02.876Z,0
2017-10-21T01:24:02.545Z,0
2017-10-21T01:25:02.876Z,0
2017-10-21T01:26:02.858Z,0
2017-10-21T01:27:02.520Z,0
2017-10-21T01:28:02.835Z,0
2017-10-21T01:29:02.837Z,0
2017-10-21T01:30:02.500Z,0
2017-10-21T01:31:02.491Z,0
2017-10-21T01:32:02.480Z,0
2017-10-21T01:33:02.473Z,0
2017-10-21T01:34:02.461Z,0
2017-10-21T01:35:02.792Z,0
2017-10-21T01:36:02.774Z,0
2017-10-21T01:37:02.447Z,0
2017-10-21T01:38:02.427Z,0
2017-10-21T01:39:02.437Z,0
2017-10-21T01:40:02.732Z,0
2017-10-21T01:41:02.732Z,0
2017-10-21T01:42:02.405Z,0
2017-10-21T01:43:02.713Z,0
2017-10-21T01:44:02.720Z,0
2017-10-21T01:45:02.063Z,0
2017-10-21T01:46:02.689Z,0
2017-10-21T01:47:02.361Z,0
2017-10-21T01:48:02.678Z,0
2017-10-21T01:49:02.027Z,0
2017-10-21T01:50:02.664Z,0
2017-10-21T01:51:02.651Z,0
2017-10-21T01:52:02.655Z,0
2017-10-21T01:53:02.639Z,0
2017-10-21T01:54:02.636Z,0
2017-10-21T01:55:01.975Z,0
2017-10-21T01:56:02.292Z,0
2017-10-21T01:57:02.607Z,0
2017-10-21T01:58:02.606Z,0
2017-10-21T01:59:02.276Z,0
2017-10-21T02:00:02.264Z,0
2017-10-21T02:01:02.256Z,0
2017-10-21T02:02:01.925Z,0
2017-10-21T02:03:02.568Z,0
2017-10-21T02:04:02.563Z,0
2017-10-21T02:05:02.233Z,0
2017-10-21T02:06:02.211Z,0
2017-10-21T02:07:02.526Z,0
2017-10-21T02:08:02.205Z,0
2017-10-21T02:09:02.522Z,0
2017-10-21T02:10:02.188Z,0
2017-10-21T02:11:02.173Z,0
2017-10-21T02:12:02.485Z,0
2017-10-21T02:13:02.475Z,0
2017-10-21T02:14:02.484Z,0
2017-10-21T02:15:01.818Z,0
2017-10-21T02:16:02.141Z,0
2017-10-21T02:17:02.454Z,0
2017-10-21T02:18:02.128Z,0
2017-10-21T02:19:02.440Z,0
2017-10-21T02:20:02.428Z,0
2017-10-21T02:21:02.418Z,0
2017-10-21T02:22:02.406Z,0
2017-10-21T02:23:02.079Z,0
2017-10-21T02:24:02.406Z,0
2017-10-21T02:25:02.384Z,0
2017-10-21T02:26:02.061Z,0
2017-10-21T02:27:02.368Z,0
2017-10-21T02:28:02.367Z,0
2017-10-21T02:29:02.354Z,0
2017-10-21T02:30:02.018Z,0
2017-10-21T02:31:02.350Z,0
2017-10-21T02:32:02.008Z,0
2017-10-21T02:33:02.320Z,0
2017-10-21T02:34:02.325Z,0
2017-10-21T02:35:02.310Z,0
2017-10-21T02:36:02.301Z,0
2017-10-21T02:37:01.969Z,0
2017-10-21T02:38:01.639Z,0
2017-10-21T02:39:02.281Z,0
2017-10-21T02:40:02.265Z,0
2017-10-21T02:41:01.945Z,0
2017-10-21T02:42:01.929Z,0
2017-10-21T02:43:01.597Z,0
2017-10-21T02:44:01.915Z,0
2017-10-21T02:45:01.917Z,0
2017-10-21T02:46:02.223Z,0
2017-10-21T02:47:01.569Z,0
2017-10-21T02:48:01.884Z,0
2017-10-21T02:49:01.872Z,0
2017-10-21T02:50:02.238Z,0
2017-10-21T02:51:01.535Z,0
2017-10-21T02:52:02.172Z,0
2017-10-21T02:53:01.512Z,0
2017-10-21T02:54:02.197Z,0
2017-10-21T02:55:02.145Z,0
2017-10-21T02:56:02.141Z,0
2017-10-21T02:57:01.805Z,0
2017-10-21T02:58:02.126Z,0
2017-10-21T02:59:02.110Z,0
2017-10-21T03:00:01.792Z,0
2017-10-21T03:01:02.124Z,0
2017-10-21T03:02:02.094Z,0
2017-10-21T03:03:01.765Z,0
2017-10-21T03:04:01.753Z,0
2017-10-21T03:05:02.066Z,0
2017-10-21T03:06:02.067Z,0
2017-10-21T03:07:02.055Z,0
2017-10-21T03:08:01.714Z,0
2017-10-21T03:09:02.035Z,0
2017-10-21T03:10:02.029Z,0
2017-10-21T03:11:02.032Z,0
2017-10-21T03:12:02.029Z,0
2017-10-21T03:13:01.349Z,0
2017-10-21T03:14:01.672Z,0
2017-10-21T03:15:01.989Z,0
2017-10-21T03:16:01.677Z,0
2017-10-21T03:17:01.970Z,0
2017-10-21T03:18:01.637Z,0
2017-10-21T03:19:01.633Z,0
2017-10-21T03:20:01.622Z,0
2017-10-21T03:21:01.930Z,0
2017-10-21T03:22:01.924Z,0
2017-10-21T03:23:01.917Z,0
2017-10-21T03:24:01.910Z,0
2017-10-21T03:25:01.911Z,0
2017-10-21T03:26:01.893Z,0
2017-10-21T03:27:01.880Z,0
2017-10-21T03:28:01.873Z,0
2017-10-21T03:29:01.869Z,0
2017-10-21T03:30:01.248Z,0
2017-10-21T03:31:01.531Z,0
2017-10-21T03:32:01.516Z,0
2017-10-21T03:33:01.834Z,0
2017-10-21T03:34:01.826Z,0
2017-10-21T03:35:01.815Z,0
2017-10-21T03:36:01.490Z,0
2017-10-21T03:37:01.478Z,0
2017-10-21T03:38:01.464Z,0
2017-10-21T03:39:01.454Z,0
2017-10-21T03:40:01.781Z,0
2017-10-21T03:41:01.763Z,0
2017-10-21T03:42:01.433Z,0
2017-10-21T03:43:01.750Z,0
2017-10-21T03:44:01.787Z,0
2017-10-21T03:45:01.731Z,0
2017-10-21T03:46:01.080Z,0
2017-10-21T03:47:01.709Z,0
2017-10-21T03:48:01.708Z,0
2017-10-21T03:49:01.370Z,0
2017-10-21T03:50:01.684Z,0
2017-10-21T03:51:01.675Z,0
2017-10-21T03:52:01.670Z,0
2017-10-21T03:53:01.364Z,0
2017-10-21T03:54:01.648Z,0
2017-10-21T03:55:01.311Z,0
2017-10-21T03:56:00.987Z,0
2017-10-21T03:57:01.627Z,0
2017-10-21T03:58:01.294Z,0
2017-10-21T03:59:01.613Z,0
2017-10-21T04:00:01.595Z,0
2017-10-21T04:01:00.967Z,0
2017-10-21T04:02:01.257Z,0
2017-10-21T04:03:01.252Z,0
2017-10-21T04:04:01.560Z,0
2017-10-21T04:05:01.566Z,0
2017-10-21T04:06:01.558Z,0
2017-10-21T04:07:01.222Z,0
2017-10-21T04:08:01.543Z,0
2017-10-21T04:09:00.880Z,0
2017-10-21T04:10:01.512Z,0
2017-10-21T04:11:00.868Z,0
2017-10-21T04:12:01.498Z,0
2017-10-21T04:13:01.497Z,0
2017-10-21T04:14:01.158Z,0
2017-10-21T04:15:01.151Z,0
2017-10-21T04:16:01.136Z,0
2017-10-21T04:17:01.457Z,0
2017-10-21T04:18:01.124Z,0
2017-10-21T04:19:01.451Z,0
2017-10-21T04:20:01.447Z,0
2017-10-21T04:21:01.446Z,0
2017-10-21T04:22:01.414Z,0
2017-10-21T04:23:01.404Z,0
2017-10-21T04:24:01.075Z,0
2017-10-21T04:25:01.385Z,0
2017-10-21T04:26:01.383Z,0
2017-10-21T04:27:01.057Z,0
2017-10-21T04:28:01.369Z,0
2017-10-21T04:29:01.356Z,0
2017-10-21T04:30:01.344Z,0
2017-10-21T04:31:01.337Z,0
2017-10-21T04:32:00.696Z,0
2017-10-21T04:33:01.324Z,0
2017-10-21T04:34:01.311Z,0
2017-10-21T04:35:00.654Z,0
2017-10-21T04:36:01.306Z,0
2017-10-21T04:37:01.284Z,0
2017-10-21T04:38:00.960Z,0
2017-10-21T04:39:01.266Z,0
2017-10-21T04:40:01.267Z,0
2017-10-21T04:41:00.607Z,0
2017-10-21T04:42:00.924Z,0
2017-10-21T04:43:01.238Z,0
2017-10-21T04:44:01.252Z,0
2017-10-21T04:45:00.892Z,0
2017-10-21T04:46:01.213Z,0
2017-10-21T04:47:01.205Z,0
2017-10-21T04:48:01.207Z,0
2017-10-21T04:49:01.188Z,0
2017-10-21T04:50:01.186Z,0
2017-10-21T04:51:01.177Z,0
2017-10-21T04:52:01.168Z,0
2017-10-21T04:53:01.174Z,0
2017-10-21T04:54:01.198Z,0
2017-10-21T04:55:00.822Z,0
2017-10-21T04:56:00.814Z,0
2017-10-21T04:57:01.135Z,0
2017-10-21T04:58:01.123Z,0
2017-10-21T04:59:00.791Z,0
2017-10-21T05:00:01.103Z,0
2017-10-21T05:01:00.772Z,0
2017-10-21T05:02:00.770Z,0
2017-10-21T05:03:01.079Z,0
2017-10-21T05:04:00.748Z,0
2017-10-21T05:05:01.063Z,0
2017-10-21T05:06:00.726Z,0
2017-10-21T05:07:00.396Z,0
2017-10-21T05:08:00.716Z,0
2017-10-21T05:09:01.022Z,0
2017-10-21T05:10:01.028Z,0
2017-10-21T05:11:00.688Z,0
2017-10-21T05:12:00.682Z,0
2017-10-21T05:13:00.994Z,0
2017-10-21T05:14:00.992Z,0
2017-10-21T05:15:00.988Z,0
2017-10-21T05:16:00.641Z,0
2017-10-21T05:17:00.964Z,0
2017-10-21T05:18:00.953Z,0
2017-10-21T05:19:00.946Z,0
2017-10-21T05:20:00.935Z,0
2017-10-21T05:21:00.616Z,0
2017-10-21T05:22:00.598Z,0
2017-10-21T05:23:00.905Z,0
2017-10-21T05:24:00.904Z,0
2017-10-21T05:25:00.572Z,0
2017-10-21T05:26:00.883Z,0
2017-10-21T05:27:00.892Z,0
2017-10-21T05:28:00.231Z,0
2017-10-21T05:29:00.874Z,0
2017-10-21T05:30:00.534Z,0
2017-10-21T05:31:00.863Z,0
2017-10-21T05:32:00.841Z,0
2017-10-21T05:33:00.505Z,0
2017-10-21T05:34:00.818Z,0
2017-10-21T05:35:00.821Z,0
2017-10-21T05:36:00.482Z,0
2017-10-21T05:37:00.795Z,5
2017-10-21T05:38:00.792Z,5
2017-10-21T05:39:00.779Z,5
2017-10-21T05:40:00.770Z,5
2017-10-21T05:41:00.761Z,5
2017-10-21T05:42:00.758Z,5
2017-10-21T05:43:00.740Z,10
2017-10-21T05:44:00.747Z,10
2017-10-21T05:45:00.742Z,10
2017-10-21T05:46:00.732Z,10
2017-10-21T05:47:00.719Z,10
2017-10-21T05:48:00.377Z,10
2017-10-21T05:49:00.374Z,10
2017-10-21T05:50:00.714Z,10
2017-10-21T05:51:00.037Z,10
2017-10-21T05:52:00.667Z,10
2017-10-21T05:53:00.674Z,15
2017-10-21T05:54:00.655Z,15
2017-10-21T05:54:59.998Z,15
2017-10-21T05:56:00.660Z,15
2017-10-21T05:57:00.631Z,15
2017-10-21T05:58:00.629Z,20
2017-10-21T05:59:00.621Z,20
2017-10-21T06:00:00.300Z,20
2017-10-21T06:01:00.608Z,25
2017-10-21T06:02:00.270Z,25
2017-10-21T06:03:00.587Z,30
2017-10-21T06:04:00.260Z,30
2017-10-21T06:05:00.252Z,30
2017-10-21T06:05:59.913Z,35
2017-10-21T06:07:00.237Z,35
2017-10-21T06:08:00.549Z,40
2017-10-21T06:09:00.213Z,40
2017-10-21T06:10:00.530Z,45
2017-10-21T06:11:00.526Z,50
2017-10-21T06:12:00.524Z,50
2017-10-21T06:13:00.518Z,55
2017-10-21T06:14:00.185Z,55
2017-10-21T06:15:00.494Z,55
2017-10-21T06:16:00.497Z,60
2017-10-21T06:17:00.478Z,65
2017-10-21T06:18:00.469Z,75
2017-10-21T06:19:00.464Z,80
2017-10-21T06:20:00.132Z,85
2017-10-21T06:21:00.446Z,90
2017-10-21T06:22:00.466Z,95
2017-10-21T06:23:00.124Z,100
2017-10-21T06:23:59.479Z,100
2017-10-21T06:25:00.097Z,105
2017-10-21T06:26:00.412Z,105
2017-10-21T06:27:00.503Z,110
2017-10-21T06:28:00.395Z,105
2017-10-21T06:29:00.390Z,105
2017-10-21T06:30:00.048Z,105
2017-10-21T06:31:00.046Z,95
2017-10-21T06:32:00.364Z,90
2017-10-21T06:33:00.367Z,80
2017-10-21T06:34:00.352Z,70
2017-10-21T06:35:00.340Z,65
2017-10-21T06:36:00.333Z,65
2017-10-21T06:37:00.331Z,65
2017-10-21T06:38:00.318Z,65
2017-10-21T06:39:00.311Z,65
2017-10-21T06:39:59.986Z,65
2017-10-21T06:41:00.302Z,65
2017-10-21T06:42:00.328Z,65
2017-10-21T06:43:00.284Z,70
2017-10-21T06:44:00.280Z,70
2017-10-21T06:45:00.264Z,75
2017-10-21T06:45:59.618Z,75
2017-10-21T06:46:59.935Z,80
2017-10-21T06:47:59.927Z,75
2017-10-21T06:49:00.258Z,75
2017-10-21T06:50:00.247Z,80
2017-10-21T06:51:00.237Z,80
2017-10-21T06:51:59.903Z,85
2017-10-21T06:53:00.219Z,85
2017-10-21T06:53:59.883Z,95
2017-10-21T06:55:00.201Z,100
2017-10-21T06:56:00.197Z,100
2017-10-21T06:57:00.218Z,105
2017-10-21T06:57:59.863Z,110
2017-10-21T06:58:59.853Z,115
2017-10-21T06:59:59.851Z,110
2017-10-21T07:00:59.836Z,105
2017-10-21T07:02:00.163Z,105
2017-10-21T07:02:59.502Z,100
2017-10-21T07:04:00.147Z,100
2017-10-21T07:05:00.164Z,105
2017-10-21T07:05:59.799Z,100
2017-10-21T07:06:59.794Z,95
2017-10-21T07:08:00.108Z,95
2017-10-21T07:09:00.105Z,100
2017-10-21T07:10:00.104Z,105
2017-10-21T07:10:59.767Z,105
2017-10-21T07:11:59.762Z,105
2017-10-21T07:13:00.076Z,105
2017-10-21T07:14:00.073Z,100
2017-10-21T07:15:00.062Z,95
2017-10-21T07:16:00.060Z,95
2017-10-21T07:16:59.739Z,95
2017-10-21T07:18:00.043Z,95
2017-10-21T07:19:00.038Z,95
2017-10-21T07:19:59.382Z,100
2017-10-21T07:20:59.704Z,95
2017-10-21T07:22:00.019Z,95
2017-10-21T07:23:00.005Z,100
2017-10-21T07:23:59.686Z,115
2017-10-21T07:24:59.674Z,135
2017-10-21T07:25:59.987Z,135
2017-10-21T07:26:59.978Z,130
2017-10-21T07:27:59.980Z,130
2017-10-21T07:28:59.967Z,130
2017-10-21T07:29:59.990Z,135
2017-10-21T07:30:59.634Z,145
2017-10-21T07:31:59.948Z,155
2017-10-21T07:32:59.940Z,160
2017-10-21T07:33:59.295Z,165
2017-10-21T07:34:59.933Z,165
2017-10-21T07:35:59.929Z,170
2017-10-21T07:36:59.928Z,175
2017-10-21T07:37:59.922Z,180
2017-10-21T07:38:59.900Z,180
2017-10-21T07:39:59.905Z,180
2017-10-21T07:40:59.907Z,185
2017-10-21T07:41:59.568Z,190
2017-10-21T07:42:59.563Z,195
2017-10-21T07:43:59.887Z,205
2017-10-21T07:44:59.542Z,205
2017-10-21T07:45:59.908Z,210
2017-10-21T07:46:59.530Z,215
2017-10-21T07:47:59.203Z,220
2017-10-21T07:48:59.839Z,220
2017-10-21T07:49:59.519Z,220
2017-10-21T07:50:59.504Z,225
2017-10-21T07:51:59.827Z,225
2017-10-21T07:52:59.493Z,225
2017-10-21T07:53:59.816Z,230
2017-10-21T07:54:59.827Z,230
2017-10-21T07:55:59.800Z,235
2017-10-21T07:56:59.488Z,235
2017-10-21T07:57:59.467Z,240
2017-10-21T07:58:59.798Z,250
2017-10-21T07:59:59.777Z,250
2017-10-21T08:00:59.765Z,245
2017-10-21T08:01:59.762Z,245
2017-10-21T08:02:59.761Z,250
2017-10-21T08:03:59.775Z,245
2017-10-21T08:05:00.004Z,250
2017-10-21T08:05:59.094Z,250
2017-10-21T08:06:59.737Z,250
2017-10-21T08:07:59.409Z,255
2017-10-21T08:08:59.409Z,260
2017-10-21T08:09:59.078Z,260
2017-10-21T08:10:59.389Z,260
2017-10-21T08:11:59.431Z,260
2017-10-21T08:12:59.708Z,260
2017-10-21T08:13:59.379Z,255
2017-10-21T08:14:59.377Z,255
2017-10-21T08:15:59.380Z,250
2017-10-21T08:16:59.365Z,245
2017-10-21T08:17:59.361Z,245
2017-10-21T08:18:59.355Z,240
2017-10-21T08:19:59.678Z,240
2017-10-21T08:20:59.675Z,235
2017-10-21T08:21:59.341Z,230
2017-10-21T08:22:59.655Z,230
2017-10-21T08:23:59.336Z,230
2017-10-21T08:24:59.646Z,225
2017-10-21T08:25:59.636Z,225
2017-10-21T08:26:59.644Z,225
2017-10-21T08:27:59.632Z,225
2017-10-21T08:28:59.303Z,230
2017-10-21T08:29:59.622Z,220
2017-10-21T08:30:59.294Z,220
2017-10-21T08:31:59.282Z,220
2017-10-21T08:32:59.605Z,220
2017-10-21T08:33:59.591Z,215
2017-10-21T08:34:59.600Z,210
2017-10-21T08:35:59.516Z,210
2017-10-21T08:36:59.591Z,205
2017-10-21T08:37:59.571Z,205
2017-10-21T08:38:59.912Z,205
2017-10-21T08:39:59.572Z,205
2017-10-21T08:40:59.564Z,205
2017-10-21T08:41:59.556Z,215
2017-10-21T08:42:59.552Z,210
2017-10-21T08:43:59.558Z,215
2017-10-21T08:44:59.217Z,215
2017-10-21T08:45:59.542Z,215
2017-10-21T08:46:59.213Z,220
2017-10-21T08:47:59.526Z,220
2017-10-21T08:48:58.548Z,220
2017-10-21T08:49:59.192Z,225
2017-10-21T08:50:59.194Z,230
2017-10-21T08:51:59.500Z,225
2017-10-21T08:52:59.509Z,225
2017-10-21T08:53:58.848Z,225
2017-10-21T08:54:59.499Z,225
2017-10-21T08:55:59.206Z,220
2017-10-21T08:56:59.479Z,220
2017-10-21T08:57:59.186Z,215
2017-10-21T08:58:59.466Z,220
2017-10-21T08:59:59.468Z,230
2017-10-21T09:00:59.142Z,235
2017-10-21T09:01:59.130Z,245
2017-10-21T09:02:58.803Z,245
2017-10-21T09:03:59.116Z,250
2017-10-21T09:04:59.436Z,255
2017-10-21T09:05:59.109Z,255
2017-10-21T09:06:59.383Z,260
2017-10-21T09:07:58.791Z,260
2017-10-21T09:08:59.416Z,265
2017-10-21T09:09:59.423Z,260
2017-10-21T09:10:59.077Z,260
2017-10-21T09:11:58.758Z,260
2017-10-21T09:12:59.400Z,260
2017-10-21T09:13:59.072Z,260
2017-10-21T09:14:59.392Z,260
2017-10-21T09:15:58.735Z,260
2017-10-21T09:16:59.389Z,260
2017-10-21T09:17:58.743Z,255
2017-10-21T09:18:59.362Z,250
2017-10-21T09:19:59.354Z,245
2017-10-21T09:20:59.032Z,250
2017-10-21T09:21:58.704Z,245
2017-10-21T09:22:58.695Z,245
2017-10-21T09:23:59.401Z,245
2017-10-21T09:24:59.018Z,240
2017-10-21T09:25:59.341Z,240
2017-10-21T09:26:58.682Z,235
2017-10-21T09:27:59.319Z,235
2017-10-21T09:28:59.329Z,235
2017-10-21T09:29:58.983Z,235
2017-10-21T09:30:59.300Z,235
2017-10-21T09:31:59.304Z,235
2017-10-21T09:32:59.292Z,230
2017-10-21T09:33:58.967Z,230
2017-10-21T09:34:59.280Z,230
2017-10-21T09:35:59.277Z,225
2017-10-21T09:36:59.278Z,220
2017-10-21T09:37:59.520Z,215
2017-10-21T09:38:59.264Z,210
2017-10-21T09:39:59.264Z,210
2017-10-21T09:40:59.250Z,210
2017-10-21T09:41:58.930Z,205
2017-10-21T09:42:58.922Z,205
2017-10-21T09:43:59.278Z,205
2017-10-21T09:44:59.246Z,205
2017-10-21T09:45:59.241Z,205
2017-10-21T09:46:58.902Z,200
2017-10-21T09:47:59.228Z,200
2017-10-21T09:48:59.215Z,200
2017-10-21T09:49:59.219Z,205
2017-10-21T09:50:58.554Z,210
2017-10-21T09:51:59.261Z,210
2017-10-21T09:52:59.191Z,215
2017-10-21T09:53:58.873Z,215
2017-10-21T09:54:58.857Z,215
2017-10-21T09:55:58.861Z,210
2017-10-21T09:56:59.168Z,205
2017-10-21T09:57:59.184Z,200
2017-10-21T09:58:58.843Z,195
2017-10-21T09:59:58.840Z,200
2017-10-21T10:00:59.152Z,210
2017-10-21T10:01:58.826Z,210
2017-10-21T10:02:59.146Z,215
2017-10-21T10:03:58.826Z,220
2017-10-21T10:04:59.128Z,220
2017-10-21T10:05:59.128Z,220
2017-10-21T10:06:58.798Z,220
2017-10-21T10:07:58.472Z,220
2017-10-21T10:08:59.047Z,210
2017-10-21T10:09:59.103Z,205
2017-10-21T10:10:58.792Z,200
2017-10-21T10:11:58.766Z,200
2017-10-21T10:12:58.764Z,205
2017-10-21T10:13:59.081Z,215
2017-10-21T10:14:58.756Z,225
2017-10-21T10:15:58.751Z,225
2017-10-21T10:16:59.072Z,235
2017-10-21T10:17:59.070Z,245
2017-10-21T10:18:58.732Z,250
2017-10-21T10:19:59.080Z,255
2017-10-21T10:20:58.725Z,265
2017-10-21T10:21:59.041Z,275
2017-10-21T10:22:58.389Z,280
2017-10-21T10:23:58.704Z,285
2017-10-21T10:24:59.033Z,290
2017-10-21T10:25:58.699Z,295
2017-10-21T10:26:59.028Z,300
2017-10-21T10:27:59.025Z,300
2017-10-21T10:28:59.008Z,295
2017-10-21T10:29:58.349Z,295
2017-10-21T10:30:58.995Z,290
2017-10-21T10:31:58.664Z,290
2017-10-21T10:32:58.658Z,290
2017-10-21T10:33:58.659Z,290
2017-10-21T10:34:58.976Z,290
2017-10-21T10:35:58.645Z,290
2017-10-21T10:36:58.669Z,285
2017-10-21T10:37:58.960Z,280
2017-10-21T10:38:58.977Z,275
2017-10-21T10:39:58.631Z,275
2017-10-21T10:40:59.217Z,270
2017-10-21T10:41:58.970Z,265
2017-10-21T10:42:58.938Z,265
2017-10-21T10:43:58.605Z,270
2017-10-21T10:44:58.621Z,265
2017-10-21T10:45:58.922Z,260
2017-10-21T10:46:58.928Z,260
2017-10-21T10:47:58.919Z,260
2017-10-21T10:48:58.582Z,260
2017-10-21T10:49:58.596Z,260
2017-10-21T10:50:58.263Z,265
2017-10-21T10:51:58.909Z,270
2017-10-21T10:52:58.251Z,280
2017-10-21T10:53:58.571Z,285
2017-10-21T10:54:58.564Z,280
2017-10-21T10:55:58.555Z,275
2017-10-21T10:56:58.888Z,265
2017-10-21T10:57:58.564Z,260
2017-10-21T10:58:58.541Z,255
2017-10-21T10:59:58.535Z,255
2017-10-21T11:00:58.861Z,260
2017-10-21T11:01:58.859Z,270
2017-10-21T11:02:58.519Z,280
2017-10-21T11:03:58.521Z,290
2017-10-21T11:04:58.833Z,305
2017-10-21T11:05:58.828Z,325
2017-10-21T11:06:58.844Z,340
2017-10-21T11:07:58.179Z,350
2017-10-21T11:08:58.171Z,350
2017-10-21T11:09:58.490Z,345
2017-10-21T11:10:58.162Z,340
2017-10-21T11:11:58.815Z,325
2017-10-21T11:12:57.833Z,310
2017-10-21T11:13:58.819Z,305
2017-10-21T11:14:58.805Z,305
2017-10-21T11:15:58.471Z,305
2017-10-21T11:16:58.458Z,290
2017-10-21T11:17:58.132Z,285
2017-10-21T11:18:58.773Z,285
2017-10-21T11:19:58.459Z,280
2017-10-21T11:20:58.765Z,280
2017-10-21T11:21:58.438Z,280
2017-10-21T11:22:58.443Z,280
2017-10-21T11:23:58.754Z,280
2017-10-21T11:24:58.764Z,280
2017-10-21T11:25:58.422Z,280
2017-10-21T11:26:58.424Z,290
2017-10-21T11:27:58.737Z,285
2017-10-21T11:28:58.750Z,285
2017-10-21T11:29:58.729Z,290
2017-10-21T11:30:58.730Z,290
2017-10-21T11:31:58.751Z,285
2017-10-21T11:32:58.726Z,275
2017-10-21T11:33:58.069Z,270
2017-10-21T11:34:58.717Z,265
2017-10-21T11:35:58.385Z,260
2017-10-21T11:36:58.379Z,250
2017-10-21T11:37:58.378Z,235
2017-10-21T11:38:58.371Z,225
2017-10-21T11:39:58.692Z,215
2017-10-21T11:40:58.038Z,210
2017-10-21T11:41:58.378Z,215
2017-10-21T11:42:58.361Z,220
2017-10-21T11:43:58.356Z,225
2017-10-21T11:44:58.686Z,225
2017-10-21T11:45:58.658Z,230
2017-10-21T11:46:57.693Z,235
2017-10-21T11:47:58.008Z,230
2017-10-21T11:48:58.332Z,225
2017-10-21T11:49:58.658Z,220
2017-10-21T11:50:58.322Z,220
2017-10-21T11:51:58.639Z,220
2017-10-21T11:52:58.310Z,215
2017-10-21T11:53:57.995Z,210
2017-10-21T11:54:58.300Z,200
2017-10-21T11:55:58.301Z,195
2017-10-21T11:56:58.636Z,195
2017-10-21T11:57:58.299Z,200
2017-10-21T11:58:57.967Z,210
2017-10-21T11:59:58.289Z,225
2017-10-21T12:00:58.281Z,235
2017-10-21T12:01:58.607Z,245
2017-10-21T12:02:58.593Z,250
2017-10-21T12:03:58.600Z,260
2017-10-21T12:04:58.596Z,270
2017-10-21T12:05:58.580Z,275
2017-10-21T12:06:57.931Z,280
2017-10-21T12:07:58.251Z,275
2017-10-21T12:08:57.928Z,270
2017-10-21T12:09:58.564Z,270
2017-10-21T12:10:58.563Z,270
2017-10-21T12:11:58.554Z,270
2017-10-21T12:12:58.227Z,270
2017-10-21T12:13:58.545Z,265
2017-10-21T12:14:58.223Z,250
2017-10-21T12:15:58.559Z,245
2017-10-21T12:16:58.535Z,240
2017-10-21T12:17:58.526Z,240
2017-10-21T12:18:58.530Z,245
2017-10-21T12:19:58.514Z,255
2017-10-21T12:20:58.518Z,265
2017-10-21T12:21:58.523Z,280
2017-10-21T12:22:58.184Z,290
2017-10-21T12:23:58.517Z,295
2017-10-21T12:24:58.498Z,295
2017-10-21T12:25:58.173Z,295
2017-10-21T12:26:58.505Z,295
2017-10-21T12:27:58.491Z,290
2017-10-21T12:28:58.160Z,290
2017-10-21T12:29:58.154Z,285
2017-10-21T12:30:58.155Z,280
2017-10-21T12:31:58.472Z,280
2017-10-21T12:32:58.147Z,280
2017-10-21T12:33:58.456Z,280
2017-10-21T12:34:58.464Z,275
2017-10-21T12:35:57.812Z,265
2017-10-21T12:36:58.449Z,255
2017-10-21T12:37:58.126Z,255
2017-10-21T12:38:58.460Z,255
2017-10-21T12:39:57.783Z,260
2017-10-21T12:40:58.430Z,260
2017-10-21T12:41:58.435Z,265
2017-10-21T12:42:57.778Z,265
2017-10-21T12:43:58.418Z,265
2017-10-21T12:44:58.409Z,265
2017-10-21T12:45:58.091Z,260
2017-10-21T12:46:57.760Z,265
2017-10-21T12:47:58.403Z,265
2017-10-21T12:48:58.075Z,255
2017-10-21T12:49:58.393Z,250
2017-10-21T12:50:58.061Z,240
2017-10-21T12:51:58.384Z,235
2017-10-21T12:52:58.066Z,230
2017-10-21T12:53:57.733Z,220
2017-10-21T12:54:58.051Z,205
2017-10-21T12:55:57.721Z,200
2017-10-21T12:56:58.374Z,190
2017-10-21T12:57:58.042Z,185
2017-10-21T12:58:58.370Z,175
2017-10-21T12:59:57.709Z,175
2017-10-21T13:00:58.354Z,175
2017-10-21T13:01:58.048Z,185
2017-10-21T13:02:58.333Z,205
2017-10-21T13:03:58.345Z,220
2017-10-21T13:04:58.008Z,240
2017-10-21T13:05:58.340Z,240
2017-10-21T13:06:58.329Z,240
2017-10-21T13:07:58.322Z,240
2017-10-21T13:08:58.328Z,250
2017-10-21T13:09:57.986Z,245
2017-10-21T13:10:58.306Z,250
2017-10-21T13:11:57.977Z,250
2017-10-21T13:12:57.973Z,255
2017-10-21T13:13:57.973Z,255
2017-10-21T13:14:57.962Z,250
2017-10-21T13:15:58.284Z,245
2017-10-21T13:16:58.280Z,240
2017-10-21T13:17:58.279Z,240
2017-10-21T13:18:58.263Z,235
2017-10-21T13:19:58.262Z,235
2017-10-21T13:20:58.258Z,240
2017-10-21T13:21:57.934Z,245
2017-10-21T13:22:58.265Z,245
2017-10-21T13:23:57.952Z,245
2017-10-21T13:24:58.245Z,250
2017-10-21T13:25:57.595Z,250
2017-10-21T13:26:58.234Z,255
2017-10-21T13:27:58.232Z,255
2017-10-21T13:28:58.226Z,255
2017-10-21T13:29:57.894Z,250
2017-10-21T13:30:57.891Z,250
2017-10-21T13:31:57.889Z,245
2017-10-21T13:32:58.206Z,240
2017-10-21T13:33:57.901Z,235
2017-10-21T13:34:58.197Z,225
2017-10-21T13:35:58.209Z,215
2017-10-21T13:36:57.866Z,205
2017-10-21T13:37:58.196Z,200
2017-10-21T13:38:58.196Z,200
2017-10-21T13:39:58.180Z,200
2017-10-21T13:40:57.847Z,200
2017-10-21T13:41:58.166Z,200
2017-10-21T13:42:57.854Z,200
2017-10-21T13:43:58.169Z,200
2017-10-21T13:44:57.836Z,210
2017-10-21T13:45:58.162Z,220
2017-10-21T13:46:57.822Z,230
2017-10-21T13:47:58.151Z,235
2017-10-21T13:48:57.820Z,230
2017-10-21T13:49:57.813Z,230
2017-10-21T13:50:57.807Z,220
2017-10-21T13:51:57.819Z,215
2017-10-21T13:52:57.795Z,215
2017-10-21T13:53:58.118Z,215
2017-10-21T13:54:58.108Z,215
2017-10-21T13:55:57.784Z,215
2017-10-21T13:56:57.782Z,220
2017-10-21T13:57:57.451Z,220
2017-10-21T13:58:58.099Z,220
2017-10-21T13:59:58.095Z,220
2017-10-21T14:00:57.440Z,220
2017-10-21T14:01:58.087Z,215
2017-10-21T14:02:58.077Z,210
2017-10-21T14:03:57.752Z,205
2017-10-21T14:04:57.743Z,195
2017-10-21T14:05:57.737Z,185
2017-10-21T14:06:58.054Z,175
2017-10-21T14:07:58.050Z,165
2017-10-21T14:08:58.046Z,155
2017-10-21T14:09:57.723Z,145
2017-10-21T14:10:57.717Z,135
2017-10-21T14:11:58.047Z,130